sensor_id;sensor_type;location;lat;lon;timestamp;P1;durP1;ratioP1;P2;durP2;ratioP2
15082;SDS011;7640;53.116;6.878;2023-03-01T00:01:52;60.53;;;28.20;;
15082;SDS011;7640;53.116;6.878;2023-03-01T00:04:21;54.33;;;26.77;;
15082;SDS011;7640;53.116;6.878;2023-03-01T00:06:49;56.50;;;26.20;;
15082;SDS011;7640;53.116;6.878;2023-03-01T00:09:17;57.33;;;27.63;;
15082;SDS011;7640;53.116;6.878;2023-03-01T00:11:46;60.80;;;26.87;;
15082;SDS011;7640;53.116;6.878;2023-03-01T00:14:14;60.30;;;27.87;;
15082;SDS011;7640;53.116;6.878;2023-03-01T00:16:46;60.30;;;27.13;;
15082;SDS011;7640;53.116;6.878;2023-03-01T00:19:16;55.33;;;26.20;;
15082;SDS011;7640;53.116;6.878;2023-03-01T00:21:48;59.27;;;27.43;;
15082;SDS011;7640;53.116;6.878;2023-03-01T00:24:16;57.17;;;26.17;;
15082;SDS011;7640;53.116;6.878;2023-03-01T00:26:45;54.97;;;26.87;;
15082;SDS011;7640;53.116;6.878;2023-03-01T00:29:13;52.40;;;24.80;;
15082;SDS011;7640;53.116;6.878;2023-03-01T00:31:42;62.27;;;29.53;;
15082;SDS011;7640;53.116;6.878;2023-03-01T00:34:10;55.50;;;27.77;;
15082;SDS011;7640;53.116;6.878;2023-03-01T00:36:40;54.97;;;27.03;;
15082;SDS011;7640;53.116;6.878;2023-03-01T00:39:10;55.83;;;26.60;;
15082;SDS011;7640;53.116;6.878;2023-03-01T00:41:41;63.13;;;28.37;;
15082;SDS011;7640;53.116;6.878;2023-03-01T00:44:10;60.57;;;28.13;;
15082;SDS011;7640;53.116;6.878;2023-03-01T00:46:39;56.97;;;26.70;;
15082;SDS011;7640;53.116;6.878;2023-03-01T00:49:07;57.60;;;28.27;;
15082;SDS011;7640;53.116;6.878;2023-03-01T00:51:36;57.00;;;28.50;;
15082;SDS011;7640;53.116;6.878;2023-03-01T00:54:07;56.43;;;27.40;;
15082;SDS011;7640;53.116;6.878;2023-03-01T00:56:36;60.20;;;28.13;;
15082;SDS011;7640;53.116;6.878;2023-03-01T00:59:05;58.33;;;27.87;;
15082;SDS011;7640;53.116;6.878;2023-03-01T01:01:33;53.80;;;25.67;;
15082;SDS011;7640;53.116;6.878;2023-03-01T01:04:02;53.83;;;26.57;;
15082;SDS011;7640;53.116;6.878;2023-03-01T01:06:34;59.30;;;27.17;;
15082;SDS011;7640;53.116;6.878;2023-03-01T01:09:10;52.57;;;25.20;;
15082;SDS011;7640;53.116;6.878;2023-03-01T01:11:43;45.70;;;24.77;;
15082;SDS011;7640;53.116;6.878;2023-03-01T01:14:14;54.07;;;25.13;;
15082;SDS011;7640;53.116;6.878;2023-03-01T01:16:43;49.50;;;24.37;;
15082;SDS011;7640;53.116;6.878;2023-03-01T01:19:12;48.23;;;24.43;;
15082;SDS011;7640;53.116;6.878;2023-03-01T01:21:40;47.47;;;24.50;;
15082;SDS011;7640;53.116;6.878;2023-03-01T01:24:11;45.90;;;23.27;;
15082;SDS011;7640;53.116;6.878;2023-03-01T01:26:39;43.87;;;22.90;;
15082;SDS011;7640;53.116;6.878;2023-03-01T01:29:09;47.10;;;23.90;;
15082;SDS011;7640;53.116;6.878;2023-03-01T01:31:39;46.83;;;23.67;;
15082;SDS011;7640;53.116;6.878;2023-03-01T01:34:12;47.03;;;22.77;;
15082;SDS011;7640;53.116;6.878;2023-03-01T01:36:43;53.73;;;25.00;;
15082;SDS011;7640;53.116;6.878;2023-03-01T01:39:16;50.67;;;24.63;;
15082;SDS011;7640;53.116;6.878;2023-03-01T01:41:46;52.70;;;23.67;;
15082;SDS011;7640;53.116;6.878;2023-03-01T01:44:17;49.80;;;24.57;;
15082;SDS011;7640;53.116;6.878;2023-03-01T01:46:50;51.90;;;25.43;;
15082;SDS011;7640;53.116;6.878;2023-03-01T01:49:23;49.73;;;23.77;;
15082;SDS011;7640;53.116;6.878;2023-03-01T01:52:00;48.70;;;23.00;;
15082;SDS011;7640;53.116;6.878;2023-03-01T01:54:39;53.10;;;24.70;;
15082;SDS011;7640;53.116;6.878;2023-03-01T01:57:14;46.00;;;23.97;;
15082;SDS011;7640;53.116;6.878;2023-03-01T01:59:48;44.70;;;23.30;;
15082;SDS011;7640;53.116;6.878;2023-03-01T02:02:21;46.67;;;24.77;;
15082;SDS011;7640;53.116;6.878;2023-03-01T02:04:52;50.57;;;24.50;;
15082;SDS011;7640;53.116;6.878;2023-03-01T02:07:26;54.00;;;24.63;;
15082;SDS011;7640;53.116;6.878;2023-03-01T02:09:56;49.43;;;24.73;;
15082;SDS011;7640;53.116;6.878;2023-03-01T02:12:25;46.37;;;24.10;;
15082;SDS011;7640;53.116;6.878;2023-03-01T02:14:55;45.70;;;23.93;;
15082;SDS011;7640;53.116;6.878;2023-03-01T02:17:23;51.43;;;26.13;;
15082;SDS011;7640;53.116;6.878;2023-03-01T02:19:55;47.43;;;24.10;;
15082;SDS011;7640;53.116;6.878;2023-03-01T02:22:36;49.13;;;24.87;;
15082;SDS011;7640;53.116;6.878;2023-03-01T02:25:10;56.03;;;26.57;;
15082;SDS011;7640;53.116;6.878;2023-03-01T02:27:52;50.87;;;25.70;;
15082;SDS011;7640;53.116;6.878;2023-03-01T02:30:28;48.30;;;24.50;;
15082;SDS011;7640;53.116;6.878;2023-03-01T02:32:58;52.13;;;25.50;;
15082;SDS011;7640;53.116;6.878;2023-03-01T02:35:30;49.60;;;24.37;;
15082;SDS011;7640;53.116;6.878;2023-03-01T02:38:02;48.20;;;25.70;;
15082;SDS011;7640;53.116;6.878;2023-03-01T02:40:34;44.73;;;22.83;;
15082;SDS011;7640;53.116;6.878;2023-03-01T02:43:06;44.63;;;24.00;;
15082;SDS011;7640;53.116;6.878;2023-03-01T02:45:42;41.50;;;23.27;;
15082;SDS011;7640;53.116;6.878;2023-03-01T02:48:15;46.87;;;24.73;;
15082;SDS011;7640;53.116;6.878;2023-03-01T02:50:46;43.93;;;23.50;;
15082;SDS011;7640;53.116;6.878;2023-03-01T02:53:32;44.73;;;23.20;;
15082;SDS011;7640;53.116;6.878;2023-03-01T02:56:08;39.83;;;22.03;;
15082;SDS011;7640;53.116;6.878;2023-03-01T02:58:39;46.80;;;24.03;;
15082;SDS011;7640;53.116;6.878;2023-03-01T03:01:13;44.93;;;23.47;;
15082;SDS011;7640;53.116;6.878;2023-03-01T03:03:42;39.43;;;22.37;;
15082;SDS011;7640;53.116;6.878;2023-03-01T03:06:12;49.03;;;23.73;;
15082;SDS011;7640;53.116;6.878;2023-03-01T03:08:40;45.57;;;23.93;;
15082;SDS011;7640;53.116;6.878;2023-03-01T03:11:10;47.67;;;24.83;;
15082;SDS011;7640;53.116;6.878;2023-03-01T03:13:38;47.43;;;24.97;;
15082;SDS011;7640;53.116;6.878;2023-03-01T03:16:15;49.67;;;24.97;;
15082;SDS011;7640;53.116;6.878;2023-03-01T03:18:44;50.17;;;24.47;;
15082;SDS011;7640;53.116;6.878;2023-03-01T03:21:13;54.13;;;25.57;;
15082;SDS011;7640;53.116;6.878;2023-03-01T03:23:42;47.07;;;24.13;;
15082;SDS011;7640;53.116;6.878;2023-03-01T03:26:11;49.83;;;24.90;;
15082;SDS011;7640;53.116;6.878;2023-03-01T03:28:41;48.10;;;24.33;;
15082;SDS011;7640;53.116;6.878;2023-03-01T03:31:10;52.30;;;25.73;;
15082;SDS011;7640;53.116;6.878;2023-03-01T03:33:40;54.10;;;25.33;;
15082;SDS011;7640;53.116;6.878;2023-03-01T03:36:08;45.93;;;24.17;;
15082;SDS011;7640;53.116;6.878;2023-03-01T03:38:39;54.50;;;26.03;;
15082;SDS011;7640;53.116;6.878;2023-03-01T03:41:08;54.57;;;27.20;;
15082;SDS011;7640;53.116;6.878;2023-03-01T03:43:37;56.77;;;27.73;;
15082;SDS011;7640;53.116;6.878;2023-03-01T03:46:09;52.07;;;26.03;;
15082;SDS011;7640;53.116;6.878;2023-03-01T03:48:40;53.70;;;25.03;;
15082;SDS011;7640;53.116;6.878;2023-03-01T03:51:10;50.13;;;24.10;;
15082;SDS011;7640;53.116;6.878;2023-03-01T03:53:40;63.90;;;29.10;;
15082;SDS011;7640;53.116;6.878;2023-03-01T03:56:09;56.97;;;27.27;;
15082;SDS011;7640;53.116;6.878;2023-03-01T03:58:38;55.83;;;27.43;;
15082;SDS011;7640;53.116;6.878;2023-03-01T04:01:07;59.23;;;28.73;;
15082;SDS011;7640;53.116;6.878;2023-03-01T04:03:35;63.03;;;28.50;;
15082;SDS011;7640;53.116;6.878;2023-03-01T04:06:05;59.80;;;28.83;;
15082;SDS011;7640;53.116;6.878;2023-03-01T04:08:34;62.83;;;28.53;;
15082;SDS011;7640;53.116;6.878;2023-03-01T04:11:03;57.23;;;26.33;;
15082;SDS011;7640;53.116;6.878;2023-03-01T04:13:46;52.73;;;26.80;;
15082;SDS011;7640;53.116;6.878;2023-03-01T04:16:15;55.17;;;26.53;;
15082;SDS011;7640;53.116;6.878;2023-03-01T04:18:44;61.60;;;28.70;;
15082;SDS011;7640;53.116;6.878;2023-03-01T04:21:14;58.47;;;25.80;;
15082;SDS011;7640;53.116;6.878;2023-03-01T04:23:43;52.83;;;27.03;;
15082;SDS011;7640;53.116;6.878;2023-03-01T04:26:11;58.60;;;26.60;;
15082;SDS011;7640;53.116;6.878;2023-03-01T04:28:41;51.70;;;25.90;;
15082;SDS011;7640;53.116;6.878;2023-03-01T04:31:12;55.83;;;26.83;;
15082;SDS011;7640;53.116;6.878;2023-03-01T04:33:45;53.40;;;27.20;;
15082;SDS011;7640;53.116;6.878;2023-03-01T04:36:17;52.27;;;26.20;;
15082;SDS011;7640;53.116;6.878;2023-03-01T04:38:47;56.70;;;26.90;;
15082;SDS011;7640;53.116;6.878;2023-03-01T04:41:16;54.00;;;27.30;;
15082;SDS011;7640;53.116;6.878;2023-03-01T04:43:47;55.23;;;26.93;;
15082;SDS011;7640;53.116;6.878;2023-03-01T04:46:17;54.10;;;27.07;;
15082;SDS011;7640;53.116;6.878;2023-03-01T04:48:48;53.93;;;25.57;;
15082;SDS011;7640;53.116;6.878;2023-03-01T04:51:18;63.60;;;27.93;;
15082;SDS011;7640;53.116;6.878;2023-03-01T04:53:46;56.43;;;27.63;;
15082;SDS011;7640;53.116;6.878;2023-03-01T04:56:15;50.07;;;25.07;;
15082;SDS011;7640;53.116;6.878;2023-03-01T04:58:45;62.70;;;28.97;;
15082;SDS011;7640;53.116;6.878;2023-03-01T05:01:14;54.03;;;26.37;;
15082;SDS011;7640;53.116;6.878;2023-03-01T05:03:46;51.83;;;25.60;;
15082;SDS011;7640;53.116;6.878;2023-03-01T05:06:18;54.87;;;26.40;;
15082;SDS011;7640;53.116;6.878;2023-03-01T05:08:49;57.97;;;28.43;;
15082;SDS011;7640;53.116;6.878;2023-03-01T05:11:27;55.67;;;27.27;;
15082;SDS011;7640;53.116;6.878;2023-03-01T05:13:59;48.53;;;25.37;;
15082;SDS011;7640;53.116;6.878;2023-03-01T05:16:28;52.27;;;26.37;;
15082;SDS011;7640;53.116;6.878;2023-03-01T05:19:00;66.97;;;30.43;;
15082;SDS011;7640;53.116;6.878;2023-03-01T05:21:39;52.43;;;26.50;;
15082;SDS011;7640;53.116;6.878;2023-03-01T05:24:28;49.57;;;24.90;;
15082;SDS011;7640;53.116;6.878;2023-03-01T05:26:58;48.87;;;24.17;;
15082;SDS011;7640;53.116;6.878;2023-03-01T05:29:28;49.43;;;24.87;;
15082;SDS011;7640;53.116;6.878;2023-03-01T05:32:01;55.93;;;26.93;;
15082;SDS011;7640;53.116;6.878;2023-03-01T05:34:32;57.73;;;26.87;;
15082;SDS011;7640;53.116;6.878;2023-03-01T05:37:04;53.77;;;25.83;;
15082;SDS011;7640;53.116;6.878;2023-03-01T05:39:34;56.57;;;26.63;;
15082;SDS011;7640;53.116;6.878;2023-03-01T05:42:02;52.93;;;26.20;;
15082;SDS011;7640;53.116;6.878;2023-03-01T05:44:31;49.37;;;25.70;;
15082;SDS011;7640;53.116;6.878;2023-03-01T05:46:59;48.80;;;25.83;;
15082;SDS011;7640;53.116;6.878;2023-03-01T05:49:28;53.00;;;26.80;;
15082;SDS011;7640;53.116;6.878;2023-03-01T05:51:56;89.47;;;37.57;;
15082;SDS011;7640;53.116;6.878;2023-03-01T05:54:26;55.93;;;27.87;;
15082;SDS011;7640;53.116;6.878;2023-03-01T05:56:54;51.77;;;25.40;;
15082;SDS011;7640;53.116;6.878;2023-03-01T05:59:23;51.73;;;25.10;;
15082;SDS011;7640;53.116;6.878;2023-03-01T06:01:52;49.07;;;26.23;;
15082;SDS011;7640;53.116;6.878;2023-03-01T06:04:20;50.80;;;26.23;;
15082;SDS011;7640;53.116;6.878;2023-03-01T06:06:49;50.57;;;25.73;;
15082;SDS011;7640;53.116;6.878;2023-03-01T06:09:17;51.00;;;26.43;;
15082;SDS011;7640;53.116;6.878;2023-03-01T06:11:47;62.43;;;30.47;;
15082;SDS011;7640;53.116;6.878;2023-03-01T06:14:15;62.70;;;28.33;;
15082;SDS011;7640;53.116;6.878;2023-03-01T06:16:44;65.57;;;30.77;;
15082;SDS011;7640;53.116;6.878;2023-03-01T06:19:12;61.77;;;28.57;;
15082;SDS011;7640;53.116;6.878;2023-03-01T06:21:40;61.30;;;30.83;;
15082;SDS011;7640;53.116;6.878;2023-03-01T06:24:09;63.00;;;31.37;;
15082;SDS011;7640;53.116;6.878;2023-03-01T06:26:37;68.63;;;31.37;;
15082;SDS011;7640;53.116;6.878;2023-03-01T06:29:07;66.67;;;31.27;;
15082;SDS011;7640;53.116;6.878;2023-03-01T06:31:35;62.97;;;31.30;;
15082;SDS011;7640;53.116;6.878;2023-03-01T06:34:04;62.73;;;29.80;;
15082;SDS011;7640;53.116;6.878;2023-03-01T06:36:32;58.87;;;29.37;;
15082;SDS011;7640;53.116;6.878;2023-03-01T06:39:00;57.37;;;28.10;;
15082;SDS011;7640;53.116;6.878;2023-03-01T06:41:29;62.47;;;30.17;;
15082;SDS011;7640;53.116;6.878;2023-03-01T06:43:57;58.83;;;30.07;;
15082;SDS011;7640;53.116;6.878;2023-03-01T06:46:27;58.23;;;28.67;;
15082;SDS011;7640;53.116;6.878;2023-03-01T06:48:57;58.97;;;29.03;;
15082;SDS011;7640;53.116;6.878;2023-03-01T06:51:25;57.07;;;28.43;;
15082;SDS011;7640;53.116;6.878;2023-03-01T06:53:54;55.10;;;28.63;;
15082;SDS011;7640;53.116;6.878;2023-03-01T06:56:22;62.30;;;31.03;;
15082;SDS011;7640;53.116;6.878;2023-03-01T06:58:51;58.73;;;29.83;;
15082;SDS011;7640;53.116;6.878;2023-03-01T07:01:19;62.07;;;29.40;;
15082;SDS011;7640;53.116;6.878;2023-03-01T07:03:49;55.30;;;28.47;;
15082;SDS011;7640;53.116;6.878;2023-03-01T07:06:17;57.43;;;29.07;;
15082;SDS011;7640;53.116;6.878;2023-03-01T07:08:46;58.77;;;28.67;;
15082;SDS011;7640;53.116;6.878;2023-03-01T07:11:15;62.00;;;29.47;;
15082;SDS011;7640;53.116;6.878;2023-03-01T07:13:43;60.33;;;28.83;;
15082;SDS011;7640;53.116;6.878;2023-03-01T07:16:12;55.00;;;29.07;;
15082;SDS011;7640;53.116;6.878;2023-03-01T07:18:40;57.17;;;28.37;;
15082;SDS011;7640;53.116;6.878;2023-03-01T07:21:12;67.67;;;31.83;;
15082;SDS011;7640;53.116;6.878;2023-03-01T07:23:42;63.50;;;31.60;;
15082;SDS011;7640;53.116;6.878;2023-03-01T07:26:11;62.23;;;31.73;;
15082;SDS011;7640;53.116;6.878;2023-03-01T07:28:39;65.27;;;31.33;;
15082;SDS011;7640;53.116;6.878;2023-03-01T07:31:08;64.10;;;31.70;;
15082;SDS011;7640;53.116;6.878;2023-03-01T07:33:36;63.63;;;32.50;;
15082;SDS011;7640;53.116;6.878;2023-03-01T07:36:05;65.43;;;32.67;;
15082;SDS011;7640;53.116;6.878;2023-03-01T07:38:36;68.00;;;33.47;;
15082;SDS011;7640;53.116;6.878;2023-03-01T07:41:04;71.47;;;35.67;;
15082;SDS011;7640;53.116;6.878;2023-03-01T07:43:33;74.80;;;36.67;;
15082;SDS011;7640;53.116;6.878;2023-03-01T07:46:01;74.10;;;36.10;;
15082;SDS011;7640;53.116;6.878;2023-03-01T07:48:31;72.30;;;36.67;;
15082;SDS011;7640;53.116;6.878;2023-03-01T07:51:00;76.50;;;37.07;;
15082;SDS011;7640;53.116;6.878;2023-03-01T07:53:29;83.83;;;39.57;;
15082;SDS011;7640;53.116;6.878;2023-03-01T07:56:02;78.50;;;39.83;;
15082;SDS011;7640;53.116;6.878;2023-03-01T07:58:33;75.47;;;38.67;;
15082;SDS011;7640;53.116;6.878;2023-03-01T08:01:02;76.03;;;39.27;;
15082;SDS011;7640;53.116;6.878;2023-03-01T08:03:31;85.97;;;41.10;;
15082;SDS011;7640;53.116;6.878;2023-03-01T08:06:00;81.23;;;42.27;;
15082;SDS011;7640;53.116;6.878;2023-03-01T08:08:29;79.97;;;40.70;;
15082;SDS011;7640;53.116;6.878;2023-03-01T08:10:59;85.60;;;42.70;;
15082;SDS011;7640;53.116;6.878;2023-03-01T08:13:31;86.50;;;42.83;;
15082;SDS011;7640;53.116;6.878;2023-03-01T08:16:00;92.60;;;45.13;;
15082;SDS011;7640;53.116;6.878;2023-03-01T08:18:31;100.77;;;46.57;;
15082;SDS011;7640;53.116;6.878;2023-03-01T08:21:03;118.13;;;44.50;;
15082;SDS011;7640;53.116;6.878;2023-03-01T08:23:33;134.17;;;46.50;;
15082;SDS011;7640;53.116;6.878;2023-03-01T08:26:04;129.13;;;49.20;;
15082;SDS011;7640;53.116;6.878;2023-03-01T08:28:35;116.37;;;45.47;;
15082;SDS011;7640;53.116;6.878;2023-03-01T08:31:12;114.43;;;41.93;;
15082;SDS011;7640;53.116;6.878;2023-03-01T08:33:43;146.53;;;50.37;;
15082;SDS011;7640;53.116;6.878;2023-03-01T08:36:17;121.60;;;46.00;;
15082;SDS011;7640;53.116;6.878;2023-03-01T08:38:47;114.67;;;45.80;;
15082;SDS011;7640;53.116;6.878;2023-03-01T08:41:17;134.60;;;46.33;;
15082;SDS011;7640;53.116;6.878;2023-03-01T08:43:48;115.03;;;47.47;;
15082;SDS011;7640;53.116;6.878;2023-03-01T08:46:16;119.07;;;46.93;;
15082;SDS011;7640;53.116;6.878;2023-03-01T08:48:45;122.60;;;46.70;;
15082;SDS011;7640;53.116;6.878;2023-03-01T08:51:15;113.87;;;41.93;;
15082;SDS011;7640;53.116;6.878;2023-03-01T08:53:45;106.43;;;38.77;;
15082;SDS011;7640;53.116;6.878;2023-03-01T08:56:15;115.43;;;41.93;;
15082;SDS011;7640;53.116;6.878;2023-03-01T08:58:46;117.93;;;41.07;;
15082;SDS011;7640;53.116;6.878;2023-03-01T09:01:16;113.20;;;41.53;;
15082;SDS011;7640;53.116;6.878;2023-03-01T09:03:46;130.87;;;41.93;;
15082;SDS011;7640;53.116;6.878;2023-03-01T09:06:15;109.93;;;43.37;;
15082;SDS011;7640;53.116;6.878;2023-03-01T09:08:44;151.47;;;48.37;;
15082;SDS011;7640;53.116;6.878;2023-03-01T09:11:15;153.50;;;48.67;;
15082;SDS011;7640;53.116;6.878;2023-03-01T09:13:48;128.67;;;44.20;;
15082;SDS011;7640;53.116;6.878;2023-03-01T09:16:17;148.47;;;49.63;;
15082;SDS011;7640;53.116;6.878;2023-03-01T09:18:48;155.13;;;51.70;;
15082;SDS011;7640;53.116;6.878;2023-03-01T09:21:19;134.73;;;48.00;;
15082;SDS011;7640;53.116;6.878;2023-03-01T09:24:05;138.20;;;48.53;;
15082;SDS011;7640;53.116;6.878;2023-03-01T09:26:37;140.57;;;48.30;;
15082;SDS011;7640;53.116;6.878;2023-03-01T09:29:05;139.73;;;50.87;;
15082;SDS011;7640;53.116;6.878;2023-03-01T09:31:36;123.17;;;50.23;;
15082;SDS011;7640;53.116;6.878;2023-03-01T09:34:04;116.80;;;47.03;;
15082;SDS011;7640;53.116;6.878;2023-03-01T09:36:34;122.60;;;51.03;;
15082;SDS011;7640;53.116;6.878;2023-03-01T09:39:03;118.33;;;50.37;;
15082;SDS011;7640;53.116;6.878;2023-03-01T09:41:42;115.97;;;50.03;;
15082;SDS011;7640;53.116;6.878;2023-03-01T09:44:23;106.03;;;45.23;;
15082;SDS011;7640;53.116;6.878;2023-03-01T09:47:00;95.80;;;44.63;;
15082;SDS011;7640;53.116;6.878;2023-03-01T09:49:30;88.20;;;45.40;;
15082;SDS011;7640;53.116;6.878;2023-03-01T09:52:03;85.00;;;44.53;;
15082;SDS011;7640;53.116;6.878;2023-03-01T09:54:40;82.97;;;46.63;;
15082;SDS011;7640;53.116;6.878;2023-03-01T09:57:15;82.63;;;45.13;;
15082;SDS011;7640;53.116;6.878;2023-03-01T09:59:56;79.27;;;44.87;;
15082;SDS011;7640;53.116;6.878;2023-03-01T10:02:48;87.23;;;45.23;;
15082;SDS011;7640;53.116;6.878;2023-03-01T10:05:27;81.73;;;46.10;;
15082;SDS011;7640;53.116;6.878;2023-03-01T10:08:15;77.73;;;45.17;;
15082;SDS011;7640;53.116;6.878;2023-03-01T10:10:55;84.40;;;43.30;;
15082;SDS011;7640;53.116;6.878;2023-03-01T10:13:27;75.87;;;41.30;;
15082;SDS011;7640;53.116;6.878;2023-03-01T10:16:03;77.70;;;39.73;;
15082;SDS011;7640;53.116;6.878;2023-03-01T10:18:40;70.70;;;39.73;;
15082;SDS011;7640;53.116;6.878;2023-03-01T10:21:13;71.80;;;40.67;;
15082;SDS011;7640;53.116;6.878;2023-03-01T10:23:45;67.23;;;37.33;;
15082;SDS011;7640;53.116;6.878;2023-03-01T10:29:09;63.57;;;34.53;;
15082;SDS011;7640;53.116;6.878;2023-03-01T10:31:41;60.93;;;34.13;;
15082;SDS011;7640;53.116;6.878;2023-03-01T10:34:13;60.10;;;33.87;;
15082;SDS011;7640;53.116;6.878;2023-03-01T10:36:45;59.97;;;33.90;;
15082;SDS011;7640;53.116;6.878;2023-03-01T10:39:17;57.23;;;34.43;;
15082;SDS011;7640;53.116;6.878;2023-03-01T10:41:56;56.33;;;32.57;;
15082;SDS011;7640;53.116;6.878;2023-03-01T10:44:36;53.17;;;30.90;;
15082;SDS011;7640;53.116;6.878;2023-03-01T10:47:15;51.33;;;31.03;;
15082;SDS011;7640;53.116;6.878;2023-03-01T10:49:51;50.10;;;29.83;;
15082;SDS011;7640;53.116;6.878;2023-03-01T10:52:27;47.23;;;29.27;;
15082;SDS011;7640;53.116;6.878;2023-03-01T10:55:00;50.67;;;30.07;;
15082;SDS011;7640;53.116;6.878;2023-03-01T10:57:33;49.70;;;29.07;;
15082;SDS011;7640;53.116;6.878;2023-03-01T11:03:03;43.10;;;27.13;;
15082;SDS011;7640;53.116;6.878;2023-03-01T11:08:34;45.03;;;26.67;;
15082;SDS011;7640;53.116;6.878;2023-03-01T11:11:16;35.47;;;21.03;;
15082;SDS011;7640;53.116;6.878;2023-03-01T11:13:59;33.07;;;19.87;;
15082;SDS011;7640;53.116;6.878;2023-03-01T11:16:59;30.33;;;19.70;;
15082;SDS011;7640;53.116;6.878;2023-03-01T11:19:29;32.27;;;19.47;;
15082;SDS011;7640;53.116;6.878;2023-03-01T11:21:59;30.20;;;18.57;;
15082;SDS011;7640;53.116;6.878;2023-03-01T11:24:34;33.77;;;18.83;;
15082;SDS011;7640;53.116;6.878;2023-03-01T11:27:13;29.67;;;18.17;;
15082;SDS011;7640;53.116;6.878;2023-03-01T11:29:51;29.27;;;18.87;;
15082;SDS011;7640;53.116;6.878;2023-03-01T11:32:24;32.43;;;18.63;;
15082;SDS011;7640;53.116;6.878;2023-03-01T11:34:57;29.67;;;18.80;;
15082;SDS011;7640;53.116;6.878;2023-03-01T11:37:32;30.30;;;18.97;;
15082;SDS011;7640;53.116;6.878;2023-03-01T11:40:10;30.53;;;19.80;;
15082;SDS011;7640;53.116;6.878;2023-03-01T11:42:47;29.40;;;19.67;;
15082;SDS011;7640;53.116;6.878;2023-03-01T11:45:25;33.80;;;21.00;;
15082;SDS011;7640;53.116;6.878;2023-03-01T11:48:07;31.47;;;20.03;;
15082;SDS011;7640;53.116;6.878;2023-03-01T11:51:15;31.17;;;20.47;;
15082;SDS011;7640;53.116;6.878;2023-03-01T11:53:56;34.97;;;21.67;;
15082;SDS011;7640;53.116;6.878;2023-03-01T11:56:34;33.87;;;20.80;;
15082;SDS011;7640;53.116;6.878;2023-03-01T11:59:23;35.43;;;22.20;;
15082;SDS011;7640;53.116;6.878;2023-03-01T12:02:22;32.13;;;20.27;;
15082;SDS011;7640;53.116;6.878;2023-03-01T12:05:44;30.60;;;20.10;;
15082;SDS011;7640;53.116;6.878;2023-03-01T12:08:53;29.83;;;19.57;;
15082;SDS011;7640;53.116;6.878;2023-03-01T12:11:41;32.23;;;20.40;;
15082;SDS011;7640;53.116;6.878;2023-03-01T12:14:30;29.87;;;20.03;;
15082;SDS011;7640;53.116;6.878;2023-03-01T12:17:25;28.20;;;19.03;;
15082;SDS011;7640;53.116;6.878;2023-03-01T12:20:25;29.30;;;18.87;;
15082;SDS011;7640;53.116;6.878;2023-03-01T12:23:11;27.80;;;18.83;;
15082;SDS011;7640;53.116;6.878;2023-03-01T12:25:58;28.83;;;19.20;;
15082;SDS011;7640;53.116;6.878;2023-03-01T12:28:55;28.43;;;18.73;;
15082;SDS011;7640;53.116;6.878;2023-03-01T12:31:47;27.80;;;16.80;;
15082;SDS011;7640;53.116;6.878;2023-03-01T12:38:01;27.20;;;17.77;;
15082;SDS011;7640;53.116;6.878;2023-03-01T12:40:46;27.50;;;18.37;;
15082;SDS011;7640;53.116;6.878;2023-03-01T12:43:40;26.10;;;18.27;;
15082;SDS011;7640;53.116;6.878;2023-03-01T12:46:21;25.97;;;17.87;;
15082;SDS011;7640;53.116;6.878;2023-03-01T12:49:05;22.70;;;16.50;;
15082;SDS011;7640;53.116;6.878;2023-03-01T12:51:39;27.70;;;17.60;;
15082;SDS011;7640;53.116;6.878;2023-03-01T12:54:15;26.67;;;17.20;;
15082;SDS011;7640;53.116;6.878;2023-03-01T12:56:49;28.87;;;19.13;;
15082;SDS011;7640;53.116;6.878;2023-03-01T12:59:19;25.43;;;17.03;;
15082;SDS011;7640;53.116;6.878;2023-03-01T13:01:56;28.30;;;19.00;;
15082;SDS011;7640;53.116;6.878;2023-03-01T13:04:35;29.33;;;18.57;;
15082;SDS011;7640;53.116;6.878;2023-03-01T13:07:23;26.27;;;18.93;;
15082;SDS011;7640;53.116;6.878;2023-03-01T13:10:03;24.07;;;17.07;;
15082;SDS011;7640;53.116;6.878;2023-03-01T13:12:46;25.27;;;17.43;;
15082;SDS011;7640;53.116;6.878;2023-03-01T13:15:28;24.27;;;17.50;;
15082;SDS011;7640;53.116;6.878;2023-03-01T13:18:02;26.23;;;18.10;;
15082;SDS011;7640;53.116;6.878;2023-03-01T13:20:45;25.50;;;17.63;;
15082;SDS011;7640;53.116;6.878;2023-03-01T13:23:23;26.17;;;19.30;;
15082;SDS011;7640;53.116;6.878;2023-03-01T13:28:55;21.70;;;17.43;;
15082;SDS011;7640;53.116;6.878;2023-03-01T13:34:40;22.57;;;17.50;;
15082;SDS011;7640;53.116;6.878;2023-03-01T13:40:38;35.13;;;28.17;;
15082;SDS011;7640;53.116;6.878;2023-03-01T13:43:31;24.03;;;20.67;;
15082;SDS011;7640;53.116;6.878;2023-03-01T13:46:07;30.90;;;23.93;;
15082;SDS011;7640;53.116;6.878;2023-03-01T13:48:40;27.43;;;21.67;;
15082;SDS011;7640;53.116;6.878;2023-03-01T13:51:10;23.90;;;17.73;;
15082;SDS011;7640;53.116;6.878;2023-03-01T13:53:40;23.10;;;17.37;;
15082;SDS011;7640;53.116;6.878;2023-03-01T13:56:13;22.70;;;18.13;;
15082;SDS011;7640;53.116;6.878;2023-03-01T13:58:51;22.83;;;18.57;;
15082;SDS011;7640;53.116;6.878;2023-03-01T14:01:23;21.57;;;17.37;;
15082;SDS011;7640;53.116;6.878;2023-03-01T14:03:56;21.77;;;16.60;;
15082;SDS011;7640;53.116;6.878;2023-03-01T14:06:25;20.87;;;17.80;;
15082;SDS011;7640;53.116;6.878;2023-03-01T14:09:04;23.97;;;17.97;;
15082;SDS011;7640;53.116;6.878;2023-03-01T14:11:57;23.87;;;18.03;;
15082;SDS011;7640;53.116;6.878;2023-03-01T14:14:43;23.43;;;16.87;;
15082;SDS011;7640;53.116;6.878;2023-03-01T14:20:17;23.73;;;17.20;;
15082;SDS011;7640;53.116;6.878;2023-03-01T14:22:49;24.70;;;17.67;;
15082;SDS011;7640;53.116;6.878;2023-03-01T14:25:24;34.40;;;19.87;;
15082;SDS011;7640;53.116;6.878;2023-03-01T14:27:57;28.10;;;19.10;;
15082;SDS011;7640;53.116;6.878;2023-03-01T14:30:33;25.57;;;18.13;;
15082;SDS011;7640;53.116;6.878;2023-03-01T14:33:15;26.50;;;18.67;;
15082;SDS011;7640;53.116;6.878;2023-03-01T14:35:52;31.30;;;19.03;;
15082;SDS011;7640;53.116;6.878;2023-03-01T14:38:31;28.20;;;18.10;;
15082;SDS011;7640;53.116;6.878;2023-03-01T14:41:03;32.20;;;19.20;;
15082;SDS011;7640;53.116;6.878;2023-03-01T14:43:33;24.63;;;17.50;;
15082;SDS011;7640;53.116;6.878;2023-03-01T14:46:06;28.10;;;18.27;;
15082;SDS011;7640;53.116;6.878;2023-03-01T14:48:44;26.60;;;17.87;;
15082;SDS011;7640;53.116;6.878;2023-03-01T14:51:16;24.60;;;17.37;;
15082;SDS011;7640;53.116;6.878;2023-03-01T14:53:45;23.83;;;17.37;;
15082;SDS011;7640;53.116;6.878;2023-03-01T14:56:16;27.23;;;17.87;;
15082;SDS011;7640;53.116;6.878;2023-03-01T14:58:46;24.07;;;17.93;;
15082;SDS011;7640;53.116;6.878;2023-03-01T15:01:20;24.03;;;17.10;;
15082;SDS011;7640;53.116;6.878;2023-03-01T15:03:49;25.67;;;17.63;;
15082;SDS011;7640;53.116;6.878;2023-03-01T15:06:19;25.83;;;18.20;;
15082;SDS011;7640;53.116;6.878;2023-03-01T15:08:50;25.27;;;17.57;;
15082;SDS011;7640;53.116;6.878;2023-03-01T15:11:23;24.97;;;17.03;;
15082;SDS011;7640;53.116;6.878;2023-03-01T15:13:55;25.87;;;17.70;;
15082;SDS011;7640;53.116;6.878;2023-03-01T15:16:26;27.53;;;18.33;;
15082;SDS011;7640;53.116;6.878;2023-03-01T15:18:59;24.50;;;16.97;;
15082;SDS011;7640;53.116;6.878;2023-03-01T15:21:30;24.13;;;17.17;;
15082;SDS011;7640;53.116;6.878;2023-03-01T15:24:02;28.83;;;17.60;;
15082;SDS011;7640;53.116;6.878;2023-03-01T15:26:49;26.80;;;17.60;;
15082;SDS011;7640;53.116;6.878;2023-03-01T15:29:22;27.27;;;17.67;;
15082;SDS011;7640;53.116;6.878;2023-03-01T15:31:58;24.47;;;16.60;;
15082;SDS011;7640;53.116;6.878;2023-03-01T15:34:33;25.60;;;17.27;;